createdAt,value
2019-02-21T00:00:52.399Z,7.80
2019-02-21T00:03:19.126Z,7.33
2019-02-21T00:05:45.886Z,7.47
2019-02-21T00:08:12.966Z,7.47
2019-02-21T00:10:40.086Z,7.37
2019-02-21T00:13:07.133Z,7.50
2019-02-21T00:15:33.995Z,7.57
2019-02-21T00:18:00.725Z,7.67
2019-02-21T00:20:27.771Z,7.30
2019-02-21T00:22:55.041Z,8.30
2019-02-21T00:25:29.038Z,8.10
2019-02-21T00:27:56.448Z,7.70
2019-02-21T00:30:34.598Z,7.53
2019-02-21T00:32:52.767Z,7.70
2019-02-21T00:35:19.491Z,7.50
2019-02-21T00:37:46.270Z,7.57
2019-02-21T00:40:13.000Z,7.40
2019-02-21T00:42:39.637Z,9.20
2019-02-21T00:45:06.504Z,8.50
2019-02-21T00:47:34.285Z,8.93
2019-02-21T00:50:00.921Z,8.57
2019-02-21T00:52:31.328Z,9.57
2019-02-21T00:54:57.589Z,9.27
2019-02-21T00:57:24.694Z,9.43
2019-02-21T00:59:52.301Z,9.27
2019-02-21T01:02:19.543Z,9.67
2019-02-21T01:04:46.607Z,9.30
2019-02-21T01:07:13.760Z,9.40
2019-02-21T01:09:53.751Z,10.17
2019-02-21T01:12:20.897Z,9.20
2019-02-21T01:14:47.977Z,9.70
2019-02-21T01:17:15.423Z,8.83
2019-02-21T01:19:43.036Z,9.17
2019-02-21T01:22:10.146Z,10.17
2019-02-21T01:24:37.730Z,9.77
2019-02-21T01:27:04.887Z,10.23
2019-02-21T01:29:32.389Z,8.67
2019-02-21T01:31:59.738Z,9.63
2019-02-21T01:34:26.907Z,9.43
2019-02-21T01:36:53.979Z,9.27
2019-02-21T01:39:21.553Z,8.57
2019-02-21T01:41:49.109Z,9.90
2019-02-21T01:44:16.200Z,9.43
2019-02-21T01:46:43.313Z,10.03
2019-02-21T01:49:10.555Z,9.90
2019-02-21T01:51:38.037Z,11.33
2019-02-21T01:54:05.160Z,9.60
2019-02-21T01:56:32.370Z,10.07
2019-02-21T01:58:59.831Z,10.40
2019-02-21T02:01:26.925Z,9.90
2019-02-21T02:03:54.070Z,9.63
2019-02-21T02:06:21.191Z,10.73
2019-02-21T02:08:48.308Z,10.53
2019-02-21T02:11:15.586Z,11.17
2019-02-21T02:13:42.679Z,11.13
2019-02-21T02:16:09.994Z,10.43
2019-02-21T02:18:37.508Z,11.00
2019-02-21T02:21:04.829Z,11.00
2019-02-21T02:23:32.356Z,12.60
2019-02-21T02:25:59.509Z,11.47
2019-02-21T02:28:26.611Z,11.03
2019-02-21T02:30:54.041Z,10.73
2019-02-21T02:33:21.199Z,10.40
2019-02-21T02:35:48.320Z,11.47
2019-02-21T02:38:15.435Z,10.83
2019-02-21T02:40:42.677Z,11.03
2019-02-21T02:43:09.822Z,11.07
2019-02-21T02:45:36.929Z,11.00
2019-02-21T02:48:04.043Z,11.37
2019-02-21T02:50:31.469Z,11.93
2019-02-21T02:52:59.414Z,12.57
2019-02-21T02:55:26.566Z,12.77
2019-02-21T02:57:53.634Z,12.53
2019-02-21T03:00:20.797Z,11.93
2019-02-21T03:02:47.940Z,12.63
2019-02-21T03:05:15.155Z,12.07
2019-02-21T03:07:42.269Z,12.63
2019-02-21T03:10:10.392Z,13.03
2019-02-21T03:12:49.657Z,12.93
2019-02-21T03:15:16.339Z,12.60
2019-02-21T03:17:43.267Z,13.30
2019-02-21T03:20:10.104Z,12.53
2019-02-21T03:22:36.909Z,13.50
2019-02-21T03:25:04.016Z,13.33
2019-02-21T03:27:30.863Z,12.77
2019-02-21T03:29:57.761Z,14.07
2019-02-21T03:32:24.502Z,13.83
2019-02-21T03:34:51.234Z,14.67
2019-02-21T03:37:18.065Z,14.23
2019-02-21T03:40:04.765Z,13.63
2019-02-21T03:42:31.998Z,13.97
2019-02-21T03:44:59.665Z,14.90
2019-02-21T03:47:27.195Z,14.47
2019-02-21T03:49:54.837Z,14.50
2019-02-21T03:52:21.935Z,15.07
2019-02-21T03:54:49.027Z,15.03
2019-02-21T03:57:16.203Z,16.30
2019-02-21T03:59:43.688Z,16.50
2019-02-21T04:02:10.982Z,16.17
2019-02-21T04:04:38.456Z,16.00
2019-02-21T04:07:05.544Z,16.13
2019-02-21T04:09:33.485Z,17.03
2019-02-21T04:12:01.037Z,16.47
2019-02-21T04:14:29.002Z,16.77
2019-02-21T04:19:48.604Z,17.67
2019-02-21T04:22:35.298Z,17.33
2019-02-21T04:25:02.069Z,18.17
2019-02-21T04:27:28.714Z,20.40
2019-02-21T04:29:55.453Z,19.70
2019-02-21T04:32:22.237Z,19.20
2019-02-21T04:34:49.244Z,21.37
2019-02-21T04:37:16.709Z,19.70
2019-02-21T04:39:43.695Z,20.57
2019-02-21T04:42:10.447Z,20.37
2019-02-21T04:44:37.111Z,20.07
2019-02-21T04:47:04.104Z,20.43
2019-02-21T04:49:30.975Z,22.27
2019-02-21T04:51:57.715Z,21.80
2019-02-21T04:54:24.718Z,22.53
2019-02-21T04:56:51.468Z,20.70
2019-02-21T04:59:18.317Z,21.07
2019-02-21T05:01:45.230Z,21.87
2019-02-21T05:04:11.991Z,23.40
2019-02-21T05:06:38.842Z,22.53
2019-02-21T05:09:07.523Z,21.63
2019-02-21T05:11:34.473Z,21.93
2019-02-21T05:14:01.437Z,21.50
2019-02-21T05:16:28.531Z,22.77
2019-02-21T05:18:55.265Z,22.73
2019-02-21T05:21:22.168Z,22.53
2019-02-21T05:23:49.320Z,23.63
2019-02-21T05:29:10.626Z,23.60
2019-02-21T05:34:37.310Z,23.77
2019-02-21T05:37:23.830Z,23.97
2019-02-21T05:40:10.543Z,24.00
2019-02-21T05:42:57.610Z,23.83
2019-02-21T05:45:32.085Z,23.53
2019-02-21T05:48:18.912Z,26.03
2019-02-21T05:51:05.690Z,27.23
2019-02-21T05:53:40.569Z,26.77
2019-02-21T05:56:27.004Z,26.87
2019-02-21T05:59:13.589Z,25.37
2019-02-21T06:01:59.997Z,24.87
2019-02-21T06:04:35.509Z,24.67
2019-02-21T06:07:41.501Z,25.70
2019-02-21T06:10:27.825Z,25.23
2019-02-21T06:13:14.723Z,24.27
2019-02-21T06:16:01.435Z,24.30
2019-02-21T06:18:48.119Z,24.93
2019-02-21T06:21:34.472Z,26.17
2019-02-21T06:24:29.345Z,26.47
2019-02-21T06:27:01.153Z,24.97
2019-02-21T06:29:47.466Z,25.10
2019-02-21T06:32:14.739Z,24.97
2019-02-21T06:34:43.134Z,24.73
2019-02-21T06:37:12.588Z,24.33
2019-02-21T06:39:38.796Z,25.30
2019-02-21T06:42:05.768Z,24.90
2019-02-21T06:44:32.635Z,24.40
2019-02-21T06:46:59.272Z,25.30
2019-02-21T06:49:32.440Z,25.90
2019-02-21T06:51:55.169Z,24.63
2019-02-21T06:54:22.551Z,25.63
2019-02-21T06:56:50.806Z,24.97
2019-02-21T06:59:17.698Z,24.87
2019-02-21T07:01:44.639Z,23.93
2019-02-21T07:04:11.371Z,23.30
2019-02-21T07:06:39.229Z,24.70
2019-02-21T07:09:06.858Z,25.03
2019-02-21T07:11:33.751Z,25.13
2019-02-21T07:14:01.035Z,24.30
2019-02-21T07:16:28.588Z,24.73
2019-02-21T07:18:55.407Z,25.07
2019-02-21T07:21:22.094Z,23.27
2019-02-21T07:23:49.101Z,24.77
2019-02-21T07:26:17.954Z,23.90
2019-02-21T07:28:44.889Z,24.77
2019-02-21T07:31:11.695Z,23.30
2019-02-21T07:33:38.580Z,23.93
2019-02-21T07:36:05.770Z,23.67
2019-02-21T07:38:32.756Z,23.13
2019-02-21T07:40:59.591Z,23.97
2019-02-21T07:43:26.508Z,22.30
2019-02-21T07:45:53.317Z,24.40
2019-02-21T07:48:20.473Z,23.43
2019-02-21T07:50:47.429Z,22.30
2019-02-21T07:53:14.078Z,23.73
2019-02-21T07:55:40.810Z,23.60
2019-02-21T07:58:07.669Z,24.13
2019-02-21T08:00:34.708Z,23.90
2019-02-21T08:03:02.129Z,23.60
2019-02-21T08:05:28.939Z,23.50
2019-02-21T08:07:56.051Z,23.43
2019-02-21T08:10:42.503Z,23.40
2019-02-21T08:13:09.591Z,24.40
2019-02-21T08:15:36.586Z,23.73
2019-02-21T08:18:03.499Z,24.57
2019-02-21T08:20:35.572Z,24.60
2019-02-21T08:23:02.845Z,25.40
2019-02-21T08:25:29.540Z,24.90
2019-02-21T08:27:56.661Z,26.40
2019-02-21T08:30:23.291Z,24.77
2019-02-21T08:32:59.473Z,25.33
2019-02-21T08:35:26.960Z,27.23
2019-02-21T08:37:53.726Z,27.47
2019-02-21T08:40:20.983Z,28.37
2019-02-21T08:42:48.041Z,26.87
2019-02-21T08:45:17.703Z,29.10
2019-02-21T08:47:44.053Z,26.03
2019-02-21T08:50:11.070Z,25.97
2019-02-21T08:52:46.679Z,26.30
2019-02-21T08:55:26.723Z,27.53
2019-02-21T08:57:54.162Z,25.83
2019-02-21T09:00:21.636Z,27.77
2019-02-21T09:02:49.199Z,27.70
2019-02-21T09:05:57.464Z,27.57
2019-02-21T09:08:33.089Z,25.60
2019-02-21T09:10:53.347Z,27.00
2019-02-21T09:13:20.457Z,27.10
2019-02-21T09:15:47.564Z,27.10
2019-02-21T09:18:14.825Z,26.90
2019-02-21T09:20:54.862Z,26.80
2019-02-21T09:23:21.602Z,25.63
2019-02-21T09:25:49.638Z,26.13
2019-02-21T09:28:17.326Z,27.23
2019-02-21T09:30:44.509Z,26.80
2019-02-21T09:33:33.854Z,27.60
2019-02-21T09:36:01.116Z,26.93
2019-02-21T09:38:28.786Z,26.13
2019-02-21T09:40:56.628Z,27.47
2019-02-21T09:43:24.031Z,27.17
2019-02-21T09:45:51.081Z,27.13
2019-02-21T09:48:18.425Z,25.83
2019-02-21T09:50:45.722Z,27.17
2019-02-21T09:53:13.136Z,27.60
2019-02-21T09:55:40.303Z,27.83
2019-02-21T09:58:07.426Z,26.27
2019-02-21T10:00:35.989Z,27.20
2019-02-21T10:03:03.650Z,25.50
2019-02-21T10:05:30.752Z,25.67
2019-02-21T10:07:57.781Z,25.93
2019-02-21T10:10:24.913Z,26.07
2019-02-21T10:12:51.763Z,24.13
2019-02-21T10:15:18.961Z,24.83
2019-02-21T10:17:46.445Z,22.90
2019-02-21T10:20:32.786Z,23.50
2019-02-21T10:22:59.604Z,22.80
2019-02-21T10:25:26.796Z,22.37
2019-02-21T10:27:54.483Z,22.40
2019-02-21T10:30:21.515Z,22.90
2019-02-21T10:32:48.622Z,24.33
2019-02-21T10:35:15.487Z,21.97
2019-02-21T10:37:42.655Z,22.33
2019-02-21T10:40:10.094Z,22.97
2019-02-21T10:42:36.864Z,21.90
2019-02-21T10:45:05.307Z,21.40
2019-02-21T10:47:32.462Z,21.30
2019-02-21T10:49:59.713Z,21.50
2019-02-21T10:52:26.383Z,21.97
2019-02-21T10:54:53.109Z,21.40
2019-02-21T10:57:19.848Z,20.43
2019-02-21T10:59:47.167Z,19.80
2019-02-21T11:02:15.338Z,20.27
2019-02-21T11:04:42.382Z,18.87
2019-02-21T11:07:10.023Z,19.37
2019-02-21T11:09:37.162Z,18.90
2019-02-21T11:12:03.984Z,18.83
2019-02-21T11:14:31.363Z,17.63
2019-02-21T11:16:58.203Z,18.37
2019-02-21T11:19:25.079Z,19.00
2019-02-21T11:21:51.765Z,15.53
2019-02-21T11:24:18.633Z,15.73
2019-02-21T11:26:45.645Z,15.73
2019-02-21T11:29:32.038Z,14.47
2019-02-21T11:31:58.771Z,14.17
2019-02-21T11:34:25.393Z,14.23
2019-02-21T11:36:52.709Z,15.03
2019-02-21T11:39:19.710Z,14.20
2019-02-21T11:41:46.439Z,12.73
2019-02-21T11:44:13.129Z,14.33
2019-02-21T11:46:39.983Z,12.90
2019-02-21T11:49:07.177Z,14.00
2019-02-21T11:51:34.061Z,13.40
2019-02-21T11:54:01.426Z,12.83
2019-02-21T11:56:28.156Z,13.60
2019-02-21T11:58:55.299Z,13.30
2019-02-21T12:01:22.123Z,13.23
2019-02-21T12:03:49.233Z,12.57
2019-02-21T12:06:16.392Z,13.50
2019-02-21T12:08:43.290Z,13.27
2019-02-21T12:11:10.313Z,13.17
2019-02-21T12:13:37.106Z,12.70
2019-02-21T12:16:23.669Z,11.77
2019-02-21T12:18:51.316Z,11.37
2019-02-21T12:21:18.387Z,11.10
2019-02-21T12:23:45.152Z,10.70
2019-02-21T12:26:24.779Z,10.07
2019-02-21T12:28:51.537Z,9.87
2019-02-21T12:31:18.168Z,10.20
2019-02-21T12:33:45.032Z,9.33
2019-02-21T12:36:11.873Z,9.00
2019-02-21T12:38:39.389Z,9.33
2019-02-21T12:41:06.454Z,9.37
2019-02-21T12:43:33.192Z,9.63
2019-02-21T12:46:00.299Z,10.20
2019-02-21T12:48:27.514Z,10.50
2019-02-21T12:50:54.273Z,10.33
2019-02-21T12:53:20.989Z,9.90
2019-02-21T12:55:47.739Z,9.70
2019-02-21T12:58:14.500Z,10.27
2019-02-21T13:00:41.683Z,10.43
2019-02-21T13:03:08.476Z,10.93
2019-02-21T13:05:41.034Z,11.10
2019-02-21T13:08:03.961Z,10.27
2019-02-21T13:10:30.820Z,10.43
2019-02-21T13:12:57.469Z,10.43
2019-02-21T13:15:44.175Z,10.47
2019-02-21T13:18:15.930Z,10.60
2019-02-21T13:20:39.747Z,10.60
2019-02-21T13:23:06.534Z,10.53
2019-02-21T13:25:33.177Z,11.40
2019-02-21T13:28:12.981Z,9.80
2019-02-21T13:30:40.471Z,10.57
2019-02-21T13:33:08.111Z,10.47
2019-02-21T13:35:35.257Z,9.90
2019-02-21T13:38:02.742Z,11.07
2019-02-21T13:40:29.837Z,10.40
2019-02-21T13:42:56.998Z,10.70
2019-02-21T13:45:24.080Z,9.83
2019-02-21T13:47:51.518Z,10.27
2019-02-21T13:50:19.129Z,10.33
2019-02-21T13:52:46.175Z,10.07
2019-02-21T13:55:13.712Z,11.47
2019-02-21T13:57:40.831Z,10.77
2019-02-21T14:00:28.960Z,9.80
2019-02-21T14:02:55.753Z,10.43
2019-02-21T14:05:22.383Z,9.13
2019-02-21T14:07:49.019Z,9.33
2019-02-21T14:10:15.803Z,8.70
2019-02-21T14:12:42.677Z,8.87
2019-02-21T14:15:28.973Z,9.23
2019-02-21T14:17:56.028Z,9.60
2019-02-21T14:20:23.069Z,9.77
2019-02-21T14:22:49.995Z,9.30
2019-02-21T14:25:16.856Z,9.70
2019-02-21T14:27:43.574Z,10.70
2019-02-21T14:30:12.664Z,10.63
2019-02-21T14:32:39.398Z,10.27
2019-02-21T14:35:07.639Z,11.50
2019-02-21T14:37:34.419Z,11.13
2019-02-21T14:40:01.329Z,10.97
2019-02-21T14:42:28.054Z,11.50
2019-02-21T14:44:54.828Z,10.00
2019-02-21T14:47:21.951Z,10.43
2019-02-21T14:49:48.600Z,11.17
2019-02-21T14:52:15.392Z,10.00
2019-02-21T14:54:42.226Z,10.53
2019-02-21T14:57:08.863Z,9.97
2019-02-21T14:59:36.026Z,10.10
2019-02-21T15:02:05.993Z,10.80
2019-02-21T15:04:31.664Z,10.97
2019-02-21T15:06:58.751Z,11.27
2019-02-21T15:09:25.642Z,10.43
2019-02-21T15:11:52.504Z,10.50
2019-02-21T15:14:19.367Z,11.37
2019-02-21T15:16:46.021Z,11.00
2019-02-21T15:19:12.927Z,11.20
2019-02-21T15:21:39.670Z,11.13
2019-02-21T15:24:06.960Z,11.67
2019-02-21T15:26:33.967Z,11.13
2019-02-21T15:29:00.952Z,11.87
2019-02-21T15:31:27.736Z,11.90
2019-02-21T15:33:54.559Z,11.73
2019-02-21T15:36:21.688Z,12.23
2019-02-21T15:38:48.428Z,13.17
2019-02-21T15:44:24.063Z,11.87
2019-02-21T15:47:11.416Z,11.67
2019-02-21T15:49:39.034Z,11.63
2019-02-21T15:52:09.448Z,13.47
2019-02-21T15:54:36.683Z,11.73
2019-02-21T15:57:03.874Z,12.80
2019-02-21T15:59:31.142Z,12.60
2019-02-21T16:01:58.535Z,13.07
2019-02-21T16:04:26.051Z,12.43
2019-02-21T16:06:53.672Z,12.50
2019-02-21T16:09:20.929Z,12.43
2019-02-21T16:11:48.060Z,12.93
2019-02-21T16:14:15.275Z,13.00
2019-02-21T16:16:42.544Z,13.67
2019-02-21T16:19:10.092Z,14.77
2019-02-21T16:21:37.179Z,12.60
2019-02-21T16:24:04.426Z,14.13
2019-02-21T16:26:31.555Z,14.30
2019-02-21T16:28:58.936Z,14.83
2019-02-21T16:31:26.120Z,14.23
2019-02-21T16:33:53.701Z,15.47
2019-02-21T16:36:20.786Z,15.07
2019-02-21T16:38:48.021Z,14.77
2019-02-21T16:41:15.899Z,15.20
2019-02-21T16:43:43.026Z,15.13
2019-02-21T16:46:10.998Z,15.87
2019-02-21T16:48:38.443Z,15.77
2019-02-21T16:51:06.253Z,15.67
2019-02-21T16:53:33.486Z,16.20
2019-02-21T16:56:00.558Z,16.03
2019-02-21T16:58:27.962Z,15.97
2019-02-21T17:00:56.889Z,17.00
2019-02-21T17:03:23.631Z,16.60
2019-02-21T17:05:50.525Z,16.07
2019-02-21T17:08:17.270Z,16.07
2019-02-21T17:10:44.189Z,16.80
2019-02-21T17:13:11.416Z,16.27
2019-02-21T17:15:38.304Z,17.67
2019-02-21T17:18:05.129Z,16.93
2019-02-21T17:20:51.990Z,16.00
2019-02-21T17:23:38.653Z,16.33
2019-02-21T17:26:24.985Z,16.63
2019-02-21T17:28:51.751Z,15.77
2019-02-21T17:31:18.786Z,17.07
2019-02-21T17:33:45.821Z,16.20
2019-02-21T17:36:12.629Z,17.13
2019-02-21T17:38:39.533Z,16.77
2019-02-21T17:41:06.615Z,16.90
2019-02-21T17:43:33.419Z,15.80
2019-02-21T17:46:00.465Z,16.53
2019-02-21T17:48:27.431Z,17.70
2019-02-21T17:50:54.147Z,17.27
2019-02-21T17:53:20.865Z,18.03
2019-02-21T17:55:47.706Z,17.57
2019-02-21T17:58:17.103Z,16.93
2019-02-21T18:00:43.079Z,17.23
2019-02-21T18:03:10.013Z,17.47
2019-02-21T18:05:36.884Z,16.63
2019-02-21T18:08:03.724Z,17.13
2019-02-21T18:10:30.566Z,17.33
2019-02-21T18:12:57.210Z,18.00
2019-02-21T18:15:24.246Z,18.27
2019-02-21T18:17:51.138Z,19.13
2019-02-21T18:20:17.977Z,20.47
2019-02-21T18:22:44.985Z,19.70
2019-02-21T18:25:15.877Z,19.67
2019-02-21T18:27:42.705Z,23.03
2019-02-21T18:30:29.316Z,23.43
2019-02-21T18:32:56.371Z,24.27
2019-02-21T18:35:23.114Z,27.23
2019-02-21T18:38:02.677Z,29.47
2019-02-21T18:40:29.415Z,30.50
2019-02-21T18:42:56.134Z,31.80
2019-02-21T18:45:43.428Z,34.30
2019-02-21T18:48:10.925Z,34.73
2019-02-21T18:50:38.707Z,35.60
2019-02-21T18:53:07.222Z,35.60
2019-02-21T18:55:34.625Z,36.90
2019-02-21T18:58:01.365Z,37.73
2019-02-21T19:00:30.036Z,38.57
2019-02-21T19:02:57.051Z,39.50
2019-02-21T19:05:34.973Z,39.70
2019-02-21T19:08:00.832Z,42.37
2019-02-21T19:10:21.485Z,42.00
2019-02-21T19:12:48.645Z,40.97
2019-02-21T19:15:56.565Z,44.00
2019-02-21T19:18:24.319Z,44.70
2019-02-21T19:20:51.948Z,45.77
2019-02-21T19:23:18.938Z,44.17
2019-02-21T19:25:45.808Z,45.97
2019-02-21T19:28:13.037Z,45.03
2019-02-21T19:30:43.788Z,47.00
2019-02-21T19:33:10.812Z,43.77
2019-02-21T19:35:38.034Z,45.77
2019-02-21T19:38:10.616Z,45.53
2019-02-21T19:40:33.606Z,46.00
2019-02-21T19:43:00.238Z,44.33
2019-02-21T19:45:26.985Z,45.17
2019-02-21T19:47:53.619Z,43.57
2019-02-21T19:50:40.445Z,44.90
2019-02-21T19:53:07.176Z,47.03
2019-02-21T19:55:34.284Z,48.73
2019-02-21T19:58:01.433Z,48.73
2019-02-21T20:03:18.109Z,50.80
2019-02-21T20:05:45.828Z,50.80
2019-02-21T20:08:20.958Z,51.37
2019-02-21T20:10:42.005Z,51.77
2019-02-21T20:15:57.967Z,52.57
2019-02-21T20:18:24.797Z,56.03
2019-02-21T20:20:52.071Z,54.90
2019-02-21T20:23:19.308Z,56.50
2019-02-21T20:25:46.436Z,54.50
2019-02-21T20:28:13.773Z,55.57
2019-02-21T20:30:40.758Z,55.67
2019-02-21T20:33:07.599Z,56.53
2019-02-21T20:35:34.504Z,55.73
2019-02-21T20:38:02.202Z,57.73
2019-02-21T20:40:29.450Z,58.57
2019-02-21T20:42:56.146Z,58.70
2019-02-21T20:45:24.834Z,58.77
2019-02-21T20:47:52.195Z,56.67
2019-02-21T20:50:19.292Z,59.87
2019-02-21T20:52:46.911Z,58.20
2019-02-21T20:55:43.439Z,60.57
2019-02-21T20:58:04.145Z,56.87
2019-02-21T21:00:50.678Z,59.80
2019-02-21T21:03:17.838Z,57.17
2019-02-21T21:05:45.075Z,60.20
2019-02-21T21:08:11.762Z,59.97
2019-02-21T21:10:38.607Z,61.23
2019-02-21T21:13:05.344Z,57.40
2019-02-21T21:15:32.356Z,58.07
2019-02-21T21:17:59.090Z,58.23
2019-02-21T21:20:26.207Z,56.30
2019-02-21T21:22:53.324Z,58.93
2019-02-21T21:25:20.528Z,60.53
2019-02-21T21:27:47.639Z,59.57
2019-02-21T21:30:14.491Z,57.57
2019-02-21T21:32:41.355Z,56.73
2019-02-21T21:35:08.288Z,56.60
2019-02-21T21:37:35.014Z,56.33
2019-02-21T21:40:02.222Z,58.57
2019-02-21T21:42:29.360Z,55.80
2019-02-21T21:45:09.386Z,56.23
2019-02-21T21:47:36.127Z,55.47
2019-02-21T21:50:03.348Z,55.33
2019-02-21T21:52:30.451Z,54.73
2019-02-21T21:54:57.393Z,55.27
2019-02-21T21:57:24.383Z,54.47
2019-02-21T21:59:51.222Z,51.63
2019-02-21T22:02:17.964Z,54.73
2019-02-21T22:04:44.719Z,52.90
2019-02-21T22:07:11.570Z,52.47
2019-02-21T22:09:38.333Z,54.70
2019-02-21T22:12:05.087Z,53.20
2019-02-21T22:14:31.901Z,54.77
2019-02-21T22:16:58.657Z,54.23
2019-02-21T22:19:25.697Z,54.97
2019-02-21T22:21:52.674Z,55.57
2019-02-21T22:24:19.409Z,53.47
2019-02-21T22:26:46.417Z,53.77
2019-02-21T22:29:13.282Z,55.93
2019-02-21T22:31:40.034Z,54.27
2019-02-21T22:34:07.046Z,51.23
2019-02-21T22:36:34.233Z,52.63
2019-02-21T22:39:02.071Z,53.17
2019-02-21T22:41:29.620Z,52.67
2019-02-21T22:43:56.878Z,55.23
2019-02-21T22:46:23.666Z,50.97
2019-02-21T22:48:50.413Z,54.13
2019-02-21T22:51:17.243Z,52.53
2019-02-21T22:53:44.022Z,48.90
2019-02-21T22:56:10.760Z,48.67
2019-02-21T22:58:44.693Z,49.40
2019-02-21T23:01:27.699Z,49.67
2019-02-21T23:04:12.323Z,50.03
2019-02-21T23:06:55.559Z,45.80
2019-02-21T23:09:27.609Z,47.10
2019-02-21T23:11:53.785Z,46.97
2019-02-21T23:14:20.554Z,46.10
2019-02-21T23:16:47.464Z,45.07
2019-02-21T23:19:15.052Z,45.60
2019-02-21T23:22:01.566Z,45.07
2019-02-21T23:24:29.295Z,43.83
2019-02-21T23:26:56.133Z,44.73
2019-02-21T23:29:22.921Z,41.67
2019-02-21T23:31:49.830Z,42.43
2019-02-21T23:34:36.722Z,40.37
2019-02-21T23:37:03.974Z,38.40
2019-02-21T23:39:38.365Z,39.70
2019-02-21T23:42:00.489Z,38.30
2019-02-21T23:44:28.179Z,39.43
2019-02-21T23:46:55.344Z,37.10
2019-02-21T23:49:22.857Z,35.33
2019-02-21T23:51:49.679Z,33.57
2019-02-21T23:54:16.617Z,32.33
2019-02-21T23:56:43.568Z,32.00
2019-02-21T23:59:11.246Z,29.73
